Time;durP1;ratioP1;P1;durP2;ratioP2;P2;SDS_P1;SDS_P2;PMS_P1;PMS_P2;Temp;Humidity;BMP_temperature;BMP_pressure;BME280_temperature;BME280_humidity;BME280_pressure;Samples;Min_cycle;Max_cycle;Signal;HPM_P1;HPM_P2
2023/03/18 00:02:17;;;;;;;6.32;3.67;;;;;;;;;;5072717;28;20044;-57
2023/03/18 00:04:43;;;;;;;5.55;3.35;;;;;;;;;;5055541;28;20549;-57
2023/03/18 00:07:09;;;;;;;8.05;3.90;;;;;;;;;;5072555;28;20037;-57
2023/03/18 00:09:35;;;;;;;4.82;3.40;;;;;;;;;;5072127;28;20052;-57
2023/03/18 00:12:02;;;;;;;9.77;3.47;;;;;;;;;;5072746;28;20060;-57
2023/03/18 00:14:28;;;;;;;6.25;4.35;;;;;;;;;;5072954;28;20044;-58
2023/03/18 00:16:55;;;;;;;6.75;4.57;;;;;;;;;;5073329;28;20610;-57
2023/03/18 00:19:21;;;;;;;5.28;3.15;;;;;;;;;;5073245;28;20040;-57
2023/03/18 00:21:47;;;;;;;5.88;3.05;;;;;;;;;;5072669;28;20045;-57
2023/03/18 00:24:14;;;;;;;6.78;3.92;;;;;;;;;;5055271;28;20091;-57
2023/03/18 00:26:40;;;;;;;6.47;3.60;;;;;;;;;;5073365;28;20045;-57
2023/03/18 00:29:07;;;;;;;4.78;3.13;;;;;;;;;;5048577;28;20067;-57
2023/03/18 00:31:34;;;;;;;5.72;3.42;;;;;;;;;;5072480;28;20045;-57
2023/03/18 00:34:00;;;;;;;4.68;3.42;;;;;;;;;;5067560;28;20039;-58
2023/03/18 00:36:27;;;;;;;7.30;4.60;;;;;;;;;;5068145;28;20046;-58
2023/03/18 00:38:56;;;;;;;8.23;5.00;;;;;;;;;;5064860;28;20083;-57
2023/03/18 00:41:23;;;;;;;6.25;4.40;;;;;;;;;;5068538;28;20048;-57
2023/03/18 00:43:53;;;;;;;6.25;2.90;;;;;;;;;;5041872;28;20611;-57
2023/03/18 00:46:19;;;;;;;4.78;3.65;;;;;;;;;;5047842;28;20054;-57
2023/03/18 00:48:45;;;;;;;7.47;3.60;;;;;;;;;;5068825;28;20045;-57
2023/03/18 00:51:13;;;;;;;5.50;3.55;;;;;;;;;;5068385;28;20033;-57
2023/03/18 00:53:46;;;;;;;6.78;3.03;;;;;;;;;;5068380;28;20793;-57
2023/03/18 00:56:13;;;;;;;4.30;3.10;;;;;;;;;;5071503;28;20071;-57
2023/03/18 00:58:40;;;;;;;4.13;3.08;;;;;;;;;;5070888;28;20048;-57
2023/03/18 01:01:07;;;;;;;5.68;3.17;;;;;;;;;;5071953;28;20040;-57
2023/03/18 01:03:33;;;;;;;8.65;3.83;;;;;;;;;;5071786;28;20045;-57
2023/03/18 01:06:03;;;;;;;6.25;2.97;;;;;;;;;;5069655;28;20160;-57
2023/03/18 01:08:29;;;;;;;5.60;3.40;;;;;;;;;;5068674;28;20055;-57
2023/03/18 01:10:56;;;;;;;7.05;2.90;;;;;;;;;;5070009;28;20190;-57
2023/03/18 01:13:24;;;;;;;5.47;2.85;;;;;;;;;;5069010;28;20104;-58
2023/03/18 01:15:50;;;;;;;4.97;2.80;;;;;;;;;;5070130;28;20132;-58
2023/03/18 01:18:17;;;;;;;6.78;2.83;;;;;;;;;;5041248;28;20048;-57
2023/03/18 01:20:44;;;;;;;6.55;2.97;;;;;;;;;;5067609;28;20040;-57
2023/03/18 01:23:12;;;;;;;7.40;3.20;;;;;;;;;;5071717;28;20041;-57
2023/03/18 01:25:38;;;;;;;5.50;3.55;;;;;;;;;;5042961;28;20051;-57
2023/03/18 01:28:05;;;;;;;5.32;3.50;;;;;;;;;;5052713;28;20080;-57
2023/03/18 01:30:33;;;;;;;6.88;3.70;;;;;;;;;;5070796;28;20124;-57
2023/03/18 01:32:59;;;;;;;5.93;3.95;;;;;;;;;;5070031;28;20069;-57
2023/03/18 01:35:26;;;;;;;5.55;3.35;;;;;;;;;;5051981;28;20041;-57
2023/03/18 01:37:52;;;;;;;4.28;3.17;;;;;;;;;;5067439;28;20041;-57
2023/03/18 01:40:19;;;;;;;5.88;3.63;;;;;;;;;;5068770;28;20636;-57
2023/03/18 01:42:54;;;;;;;6.85;3.90;;;;;;;;;;5068613;28;20040;-57
2023/03/18 01:45:22;;;;;;;6.97;4.13;;;;;;;;;;5071205;28;20531;-57
2023/03/18 01:47:48;;;;;;;7.35;4.32;;;;;;;;;;5069170;28;20051;-57
2023/03/18 01:50:17;;;;;;;7.03;3.97;;;;;;;;;;5073121;28;20043;-57
2023/03/18 01:52:43;;;;;;;7.43;4.13;;;;;;;;;;5072933;28;20543;-57
2023/03/18 01:55:12;;;;;;;9.70;5.30;;;;;;;;;;5075134;28;20076;-57
2023/03/18 01:57:40;;;;;;;11.30;4.40;;;;;;;;;;5074253;28;20566;-57
2023/03/18 02:00:09;;;;;;;6.43;4.10;;;;;;;;;;5074378;28;20040;-57
2023/03/18 02:02:36;;;;;;;9.02;4.38;;;;;;;;;;5073954;28;20048;-57
2023/03/18 02:05:05;;;;;;;5.47;3.88;;;;;;;;;;5073669;28;20036;-57
2023/03/18 02:07:33;;;;;;;6.78;4.15;;;;;;;;;;5073827;28;20523;-57
2023/03/18 02:10:00;;;;;;;7.07;4.50;;;;;;;;;;5073819;28;20095;-57
2023/03/18 02:12:34;;;;;;;7.63;4.50;;;;;;;;;;5073386;28;20145;-57
2023/03/18 02:15:05;;;;;;;4.90;3.30;;;;;;;;;;5074121;28;20033;-57
2023/03/18 02:17:33;;;;;;;14.15;4.70;;;;;;;;;;5074729;28;20106;-57
2023/03/18 02:19:59;;;;;;;11.90;4.57;;;;;;;;;;5074636;28;20044;-57
2023/03/18 02:22:30;;;;;;;6.78;5.35;;;;;;;;;;5073338;28;20041;-57
2023/03/18 02:25:08;;;;;;;5.13;3.53;;;;;;;;;;5074967;28;20128;-57
2023/03/18 02:27:37;;;;;;;10.73;4.50;;;;;;;;;;5075158;28;20045;-57
2023/03/18 02:30:06;;;;;;;7.50;3.80;;;;;;;;;;5073357;28;20072;-57
2023/03/18 02:32:33;;;;;;;5.43;3.42;;;;;;;;;;5055446;28;20040;-57
2023/03/18 02:35:01;;;;;;;5.40;3.42;;;;;;;;;;5074223;28;20210;-57
2023/03/18 02:37:27;;;;;;;8.52;4.03;;;;;;;;;;5047053;28;20071;-57
2023/03/18 02:39:53;;;;;;;5.53;3.38;;;;;;;;;;5072822;28;20661;-57
2023/03/18 02:42:31;;;;;;;9.18;4.80;;;;;;;;;;5073958;28;20045;-60
2023/03/18 02:44:58;;;;;;;11.20;4.57;;;;;;;;;;5072052;28;20056;-57
2023/03/18 02:47:26;;;;;;;9.07;4.43;;;;;;;;;;5074138;28;20556;-57
2023/03/18 02:49:52;;;;;;;5.53;3.40;;;;;;;;;;5073873;28;20095;-57
2023/03/18 02:52:18;;;;;;;7.05;3.28;;;;;;;;;;5073107;28;20045;-57
2023/03/18 02:54:45;;;;;;;8.00;3.63;;;;;;;;;;5075269;28;20037;-57
2023/03/18 02:57:11;;;;;;;6.47;3.25;;;;;;;;;;5072599;28;20534;-57
2023/03/18 02:59:37;;;;;;;7.28;4.32;;;;;;;;;;5069553;28;20044;-57
2023/03/18 03:02:03;;;;;;;6.90;2.97;;;;;;;;;;5073730;28;20037;-57
2023/03/18 03:04:29;;;;;;;11.45;4.07;;;;;;;;;;5037752;28;20132;-57
2023/03/18 03:06:56;;;;;;;5.05;3.55;;;;;;;;;;5071964;28;20056;-57
2023/03/18 03:09:22;;;;;;;5.43;3.72;;;;;;;;;;5073385;28;20041;-57
2023/03/18 03:11:49;;;;;;;6.95;3.40;;;;;;;;;;5071946;28;20051;-57
2023/03/18 03:14:15;;;;;;;7.55;3.97;;;;;;;;;;5032283;28;20041;-57
2023/03/18 03:16:42;;;;;;;7.47;3.33;;;;;;;;;;5071658;28;20045;-57
2023/03/18 03:19:08;;;;;;;7.47;3.47;;;;;;;;;;5073081;28;20636;-57
2023/03/18 03:21:35;;;;;;;11.40;5.18;;;;;;;;;;5072918;28;20094;-57
2023/03/18 03:24:02;;;;;;;6.40;3.38;;;;;;;;;;5072176;28;20578;-57
2023/03/18 03:26:29;;;;;;;7.43;3.58;;;;;;;;;;5073109;28;20756;-57
2023/03/18 03:28:55;;;;;;;7.38;3.58;;;;;;;;;;5073970;28;20098;-57
2023/03/18 03:31:22;;;;;;;6.38;3.47;;;;;;;;;;5072578;28;20040;-57
2023/03/18 03:33:49;;;;;;;7.47;3.90;;;;;;;;;;5072891;28;20056;-57
2023/03/18 03:36:16;;;;;;;7.13;3.40;;;;;;;;;;5071751;28;20051;-57
2023/03/18 03:38:42;;;;;;;6.95;4.03;;;;;;;;;;5072471;28;20128;-57
2023/03/18 03:41:10;;;;;;;5.90;3.42;;;;;;;;;;5048603;28;20049;-58
2023/03/18 03:43:40;;;;;;;5.50;3.55;;;;;;;;;;5072494;28;20136;-57
2023/03/18 03:46:06;;;;;;;5.78;3.45;;;;;;;;;;5072439;28;20550;-57
2023/03/18 03:48:33;;;;;;;8.10;3.33;;;;;;;;;;5071204;28;20369;-58
2023/03/18 03:50:59;;;;;;;9.10;3.20;;;;;;;;;;5072299;28;20892;-57
2023/03/18 03:53:25;;;;;;;6.75;3.42;;;;;;;;;;5071634;28;20052;-57
2023/03/18 03:55:53;;;;;;;6.43;3.25;;;;;;;;;;5071098;28;20731;-58
2023/03/18 03:58:19;;;;;;;4.10;2.42;;;;;;;;;;5070161;28;20044;-58
2023/03/18 04:00:45;;;;;;;6.47;3.15;;;;;;;;;;5069858;28;20045;-57
2023/03/18 04:03:12;;;;;;;3.63;2.60;;;;;;;;;;5069362;28;20045;-57
2023/03/18 04:05:38;;;;;;;4.03;2.45;;;;;;;;;;5070735;28;20044;-57
2023/03/18 04:08:05;;;;;;;7.45;4.35;;;;;;;;;;5071425;28;20044;-59
2023/03/18 04:10:33;;;;;;;3.28;2.25;;;;;;;;;;5071570;28;20048;-57
2023/03/18 04:12:59;;;;;;;4.85;3.08;;;;;;;;;;5069433;28;20053;-57
2023/03/18 04:15:26;;;;;;;6.95;2.60;;;;;;;;;;5070450;28;20519;-57
2023/03/18 04:17:53;;;;;;;10.52;3.55;;;;;;;;;;5069944;28;20040;-57
2023/03/18 04:20:20;;;;;;;5.38;2.83;;;;;;;;;;5045043;28;20624;-58
2023/03/18 04:22:46;;;;;;;4.63;2.55;;;;;;;;;;5070671;28;20547;-58
2023/03/18 04:25:16;;;;;;;4.38;2.60;;;;;;;;;;5070268;28;20048;-57
2023/03/18 04:27:42;;;;;;;3.85;2.00;;;;;;;;;;5068518;28;20075;-57
2023/03/18 04:30:09;;;;;;;9.07;2.65;;;;;;;;;;5069233;28;20040;-57
2023/03/18 04:32:35;;;;;;;3.00;1.92;;;;;;;;;;5071526;28;20052;-57
2023/03/18 04:35:02;;;;;;;5.22;2.10;;;;;;;;;;5070870;28;20044;-57
2023/03/18 04:37:28;;;;;;;3.58;2.13;;;;;;;;;;5047740;28;20064;-57
2023/03/18 04:39:54;;;;;;;5.18;1.83;;;;;;;;;;5071295;28;20151;-57
2023/03/18 04:42:20;;;;;;;4.80;2.17;;;;;;;;;;5070767;28;20096;-57
2023/03/18 04:44:46;;;;;;;6.32;2.05;;;;;;;;;;5071188;28;20053;-57
2023/03/18 04:47:12;;;;;;;3.42;1.65;;;;;;;;;;5069205;28;20118;-57
2023/03/18 04:49:39;;;;;;;5.15;2.50;;;;;;;;;;5070299;28;20041;-57
2023/03/18 04:52:06;;;;;;;3.38;1.90;;;;;;;;;;5071647;28;20045;-57
2023/03/18 04:54:32;;;;;;;3.55;2.03;;;;;;;;;;5071491;28;20163;-57
2023/03/18 04:56:58;;;;;;;4.65;1.98;;;;;;;;;;5070374;28;20041;-57
2023/03/18 04:59:24;;;;;;;2.58;1.70;;;;;;;;;;5070504;28;20044;-57
2023/03/18 05:01:50;;;;;;;2.38;1.67;;;;;;;;;;5051072;28;20036;-58
2023/03/18 05:04:16;;;;;;;5.53;3.83;;;;;;;;;;5070409;28;20051;-57
2023/03/18 05:06:43;;;;;;;5.45;1.85;;;;;;;;;;5070644;28;20553;-57
2023/03/18 05:09:09;;;;;;;3.78;1.83;;;;;;;;;;5071636;28;20041;-57
2023/03/18 05:11:35;;;;;;;4.03;1.92;;;;;;;;;;5069557;28;20049;-57
2023/03/18 05:14:01;;;;;;;6.22;1.88;;;;;;;;;;5069766;28;20108;-57
2023/03/18 05:16:28;;;;;;;2.80;1.33;;;;;;;;;;5070146;28;20637;-57
2023/03/18 05:18:55;;;;;;;6.43;3.65;;;;;;;;;;5072563;28;20041;-57
2023/03/18 05:21:21;;;;;;;4.15;1.50;;;;;;;;;;5070580;28;20052;-58
2023/03/18 05:23:47;;;;;;;5.10;1.90;;;;;;;;;;5072115;28;20562;-57
2023/03/18 05:26:13;;;;;;;2.75;1.60;;;;;;;;;;5073735;28;20045;-57
2023/03/18 05:28:39;;;;;;;2.42;1.30;;;;;;;;;;5075451;28;21777;-57
2023/03/18 05:31:06;;;;;;;4.45;1.52;;;;;;;;;;5050696;28;20514;-57
2023/03/18 05:33:32;;;;;;;3.47;1.50;;;;;;;;;;5056469;28;20040;-57
2023/03/18 05:35:58;;;;;;;2.33;1.27;;;;;;;;;;5074547;28;22847;-57
2023/03/18 05:38:24;;;;;;;2.38;1.40;;;;;;;;;;5075469;28;20033;-57
2023/03/18 05:40:51;;;;;;;2.45;1.48;;;;;;;;;;5074814;28;20518;-57
2023/03/18 05:43:17;;;;;;;4.07;1.40;;;;;;;;;;5074427;28;20527;-57
2023/03/18 05:45:43;;;;;;;4.20;1.52;;;;;;;;;;5073851;28;20548;-58
2023/03/18 05:48:09;;;;;;;1.83;1.35;;;;;;;;;;5075510;28;20902;-57
2023/03/18 05:50:42;;;;;;;3.67;1.60;;;;;;;;;;5074218;28;20053;-57
2023/03/18 05:53:10;;;;;;;3.50;1.73;;;;;;;;;;5073979;28;20124;-57
2023/03/18 05:55:37;;;;;;;5.38;1.70;;;;;;;;;;5075332;28;20033;-57
2023/03/18 05:58:03;;;;;;;4.13;1.35;;;;;;;;;;5074370;28;20047;-57
2023/03/18 06:00:30;;;;;;;4.00;1.67;;;;;;;;;;5073175;28;20041;-57
2023/03/18 06:02:57;;;;;;;3.53;1.98;;;;;;;;;;5075151;28;20090;-58
2023/03/18 06:05:23;;;;;;;2.58;1.95;;;;;;;;;;5074858;28;20033;-57
2023/03/18 06:07:50;;;;;;;2.10;1.08;;;;;;;;;;5075006;28;20032;-57
2023/03/18 06:10:16;;;;;;;4.10;2.75;;;;;;;;;;5073694;28;20639;-57
2023/03/18 06:12:43;;;;;;;4.53;1.20;;;;;;;;;;5074863;28;20065;-57
2023/03/18 06:15:10;;;;;;;3.00;1.42;;;;;;;;;;5073115;28;20040;-57
2023/03/18 06:17:36;;;;;;;3.22;1.52;;;;;;;;;;5074865;28;20036;-58
2023/03/18 06:20:04;;;;;;;3.35;1.60;;;;;;;;;;5074953;28;20449;-57
2023/03/18 06:22:31;;;;;;;3.03;1.80;;;;;;;;;;5072985;28;20485;-57
2023/03/18 06:24:57;;;;;;;2.28;1.52;;;;;;;;;;5075290;28;20067;-57
2023/03/18 06:27:23;;;;;;;4.57;2.40;;;;;;;;;;5073734;28;20155;-57
2023/03/18 06:29:49;;;;;;;2.30;1.65;;;;;;;;;;5073259;28;20048;-57
2023/03/18 06:32:15;;;;;;;2.42;1.45;;;;;;;;;;5073189;28;20047;-57
2023/03/18 06:34:41;;;;;;;3.95;1.90;;;;;;;;;;5073578;28;20331;-57
2023/03/18 06:37:08;;;;;;;2.85;2.05;;;;;;;;;;5074396;28;20032;-58
2023/03/18 06:39:34;;;;;;;2.72;1.85;;;;;;;;;;5073954;28;20099;-57
2023/03/18 06:42:01;;;;;;;4.15;1.85;;;;;;;;;;5074267;28;20072;-57
2023/03/18 06:44:27;;;;;;;3.50;1.85;;;;;;;;;;5047015;28;20036;-57
2023/03/18 06:46:53;;;;;;;4.05;1.80;;;;;;;;;;5073810;28;20044;-57
2023/03/18 06:49:19;;;;;;;3.67;2.10;;;;;;;;;;5073620;28;20071;-57
2023/03/18 06:51:47;;;;;;;4.68;2.47;;;;;;;;;;5072994;28;20401;-57
2023/03/18 06:54:13;;;;;;;3.28;1.90;;;;;;;;;;5072814;28;20441;-57
2023/03/18 06:56:40;;;;;;;2.88;1.60;;;;;;;;;;5073918;28;20070;-57
2023/03/18 06:59:08;;;;;;;4.88;2.33;;;;;;;;;;5072496;28;20051;-58
2023/03/18 07:01:35;;;;;;;3.80;2.00;;;;;;;;;;5051154;28;20457;-57
2023/03/18 07:04:01;;;;;;;6.35;2.22;;;;;;;;;;5067843;28;20048;-57
2023/03/18 07:06:28;;;;;;;4.90;1.83;;;;;;;;;;5070775;28;20392;-57
2023/03/18 07:08:55;;;;;;;6.07;2.15;;;;;;;;;;5073195;28;20483;-57
2023/03/18 07:11:21;;;;;;;4.75;2.25;;;;;;;;;;5073832;28;20061;-57
2023/03/18 07:13:47;;;;;;;6.13;2.28;;;;;;;;;;5073805;28;20049;-57
2023/03/18 07:16:14;;;;;;;8.38;4.15;;;;;;;;;;5069263;28;21198;-58
2023/03/18 07:18:41;;;;;;;6.22;2.38;;;;;;;;;;5072935;28;20064;-57
2023/03/18 07:21:08;;;;;;;5.68;3.35;;;;;;;;;;5064981;28;20713;-57
2023/03/18 07:23:34;;;;;;;4.13;2.03;;;;;;;;;;5071835;28;20048;-57
2023/03/18 07:26:00;;;;;;;6.97;3.05;;;;;;;;;;5072227;28;20897;-57
2023/03/18 07:28:26;;;;;;;5.93;1.95;;;;;;;;;;5048377;28;20844;-58
2023/03/18 07:30:53;;;;;;;3.03;1.70;;;;;;;;;;5072681;28;20181;-57
2023/03/18 07:33:19;;;;;;;3.95;1.83;;;;;;;;;;5070754;28;20459;-57
2023/03/18 07:35:45;;;;;;;3.80;2.40;;;;;;;;;;5072618;28;20036;-58
2023/03/18 07:38:12;;;;;;;4.25;2.63;;;;;;;;;;5073293;28;20511;-57
2023/03/18 07:40:38;;;;;;;6.93;2.38;;;;;;;;;;5073447;28;20068;-57
2023/03/18 07:43:05;;;;;;;3.25;1.60;;;;;;;;;;5072211;28;20047;-57
2023/03/18 07:45:32;;;;;;;6.85;2.03;;;;;;;;;;5072036;28;20184;-57
2023/03/18 07:47:58;;;;;;;3.00;1.75;;;;;;;;;;5070000;28;20114;-57
2023/03/18 07:50:24;;;;;;;5.05;2.25;;;;;;;;;;5068849;28;20529;-58
2023/03/18 07:52:50;;;;;;;4.63;2.05;;;;;;;;;;5068354;28;20040;-57
2023/03/18 07:55:17;;;;;;;8.18;1.88;;;;;;;;;;5073316;28;20738;-57
2023/03/18 07:57:43;;;;;;;7.03;2.67;;;;;;;;;;5074685;28;20151;-57
2023/03/18 08:00:10;;;;;;;6.50;2.30;;;;;;;;;;5072173;28;20110;-57
2023/03/18 08:02:36;;;;;;;10.48;2.70;;;;;;;;;;5066976;28;20071;-57
2023/03/18 08:05:03;;;;;;;5.40;2.30;;;;;;;;;;5065305;28;20044;-57
2023/03/18 08:07:29;;;;;;;7.03;2.97;;;;;;;;;;5069120;28;20044;-57
2023/03/18 08:09:55;;;;;;;3.22;2.08;;;;;;;;;;5070125;28;20049;-57
2023/03/18 08:12:22;;;;;;;4.20;2.15;;;;;;;;;;5071158;27;20107;-57
2023/03/18 08:14:48;;;;;;;5.50;2.65;;;;;;;;;;5071267;28;20596;-57
2023/03/18 08:17:14;;;;;;;7.55;2.50;;;;;;;;;;5073098;28;20521;-58
2023/03/18 08:19:40;;;;;;;6.72;2.30;;;;;;;;;;5073089;28;20044;-57
2023/03/18 08:22:07;;;;;;;3.58;1.92;;;;;;;;;;5072235;28;20049;-57
2023/03/18 08:24:33;;;;;;;5.82;1.90;;;;;;;;;;5073180;28;20112;-57
2023/03/18 08:26:59;;;;;;;4.35;2.35;;;;;;;;;;5072223;28;20037;-57
2023/03/18 08:29:25;;;;;;;4.80;2.63;;;;;;;;;;5071414;28;20129;-57
2023/03/18 08:31:53;;;;;;;6.18;2.88;;;;;;;;;;5072644;28;20513;-57
2023/03/18 08:34:19;;;;;;;5.97;1.90;;;;;;;;;;5073771;28;20676;-57
2023/03/18 08:36:45;;;;;;;11.63;4.28;;;;;;;;;;5071986;28;20040;-57
2023/03/18 08:39:11;;;;;;;5.63;2.00;;;;;;;;;;5073285;28;20123;-57
2023/03/18 08:41:37;;;;;;;7.70;1.90;;;;;;;;;;5072654;28;20041;-58
2023/03/18 08:44:06;;;;;;;5.70;2.13;;;;;;;;;;5072897;28;20045;-57
2023/03/18 08:46:32;;;;;;;8.45;3.13;;;;;;;;;;5072600;28;20650;-57
2023/03/18 08:48:59;;;;;;;3.90;2.17;;;;;;;;;;5073550;28;20035;-57
2023/03/18 08:51:25;;;;;;;8.60;3.17;;;;;;;;;;5071974;28;20036;-59
2023/03/18 08:53:51;;;;;;;8.77;3.05;;;;;;;;;;5073387;28;20123;-57
2023/03/18 08:56:18;;;;;;;6.88;3.00;;;;;;;;;;5072214;28;20059;-57
2023/03/18 08:58:44;;;;;;;7.70;2.30;;;;;;;;;;5069639;28;20510;-57
2023/03/18 09:01:11;;;;;;;5.10;2.97;;;;;;;;;;5071352;28;20040;-57
2023/03/18 09:03:37;;;;;;;8.68;2.00;;;;;;;;;;5071366;28;20546;-57
2023/03/18 09:06:03;;;;;;;7.38;2.40;;;;;;;;;;5069194;28;20062;-57
2023/03/18 09:08:31;;;;;;;11.23;2.20;;;;;;;;;;5070196;28;20578;-57
2023/03/18 09:10:58;;;;;;;5.85;2.67;;;;;;;;;;5071590;28;20140;-57
2023/03/18 09:13:25;;;;;;;5.82;1.65;;;;;;;;;;5044917;28;20591;-57
2023/03/18 09:15:51;;;;;;;7.10;1.95;;;;;;;;;;5070322;28;20044;-57
2023/03/18 09:18:17;;;;;;;3.75;2.22;;;;;;;;;;5068173;28;20048;-57
2023/03/18 09:20:44;;;;;;;6.00;2.08;;;;;;;;;;5069932;28;20075;-58
2023/03/18 09:23:11;;;;;;;5.20;2.35;;;;;;;;;;5052825;28;20674;-58
2023/03/18 09:25:37;;;;;;;4.13;1.70;;;;;;;;;;5070600;28;20036;-57
2023/03/18 09:28:03;;;;;;;5.05;2.10;;;;;;;;;;5040722;28;20051;-57
2023/03/18 09:30:30;;;;;;;4.18;2.00;;;;;;;;;;5069598;28;20660;-57
2023/03/18 09:32:56;;;;;;;5.95;2.53;;;;;;;;;;5068021;28;20075;-58
2023/03/18 09:35:23;;;;;;;6.03;2.00;;;;;;;;;;5061404;28;20048;-57
2023/03/18 09:37:49;;;;;;;6.10;2.28;;;;;;;;;;5064825;28;20075;-57
2023/03/18 09:40:35;;;;;;;5.78;2.00;;;;;;;;;;5068429;28;20538;-57
2023/03/18 09:43:09;;;;;;;4.97;2.63;;;;;;;;;;5069111;28;20051;-57
2023/03/18 09:45:40;;;;;;;4.45;1.92;;;;;;;;;;5069178;28;20154;-57
2023/03/18 09:48:13;;;;;;;5.10;1.85;;;;;;;;;;5068594;28;20504;-57
2023/03/18 09:50:49;;;;;;;5.93;2.10;;;;;;;;;;5050891;28;20048;-57
2023/03/18 09:53:15;;;;;;;7.45;2.45;;;;;;;;;;5071361;28;20132;-57
2023/03/18 09:55:48;;;;;;;4.35;2.28;;;;;;;;;;5067049;28;20047;-58
2023/03/18 09:58:21;;;;;;;5.53;2.42;;;;;;;;;;5068310;28;20589;-57
2023/03/18 10:00:47;;;;;;;3.08;1.48;;;;;;;;;;5068182;28;20511;-58
2023/03/18 10:03:15;;;;;;;3.80;1.60;;;;;;;;;;5067346;28;20144;-57
2023/03/18 10:05:47;;;;;;;8.43;2.53;;;;;;;;;;5067424;28;20092;-57
2023/03/18 10:08:13;;;;;;;;;;;;;;;;;;5069108;28;20107;-57
2023/03/18 10:10:41;;;;;;;7.57;1.77;;;;;;;;;;5043966;28;20484;-57
2023/03/18 10:13:22;;;;;;;4.47;2.10;;;;;;;;;;5072805;28;20526;-57
2023/03/18 10:15:58;;;;;;;12.88;3.67;;;;;;;;;;5067118;28;20116;-58
2023/03/18 10:18:34;;;;;;;5.50;1.85;;;;;;;;;;5072440;28;20044;-57
2023/03/18 10:21:07;;;;;;;10.43;2.20;;;;;;;;;;5046204;28;20065;-57
2023/03/18 10:23:43;;;;;;;6.18;2.85;;;;;;;;;;5067449;28;20047;-57
2023/03/18 10:26:16;;;;;;;8.07;1.52;;;;;;;;;;5069974;28;20106;-57
2023/03/18 10:29:05;;;;;;;2.70;1.50;;;;;;;;;;5070435;28;20530;-57
2023/03/18 10:31:35;;;;;;;7.43;2.72;;;;;;;;;;5035312;28;20168;-57
2023/03/18 10:34:27;;;;;;;9.23;2.15;;;;;;;;;;5075702;28;20130;-57
2023/03/18 10:36:54;;;;;;;7.75;2.00;;;;;;;;;;5070229;28;20053;-57
2023/03/18 10:39:22;;;;;;;10.88;1.63;;;;;;;;;;5075103;28;20156;-57
2023/03/18 10:41:49;;;;;;;8.07;2.13;;;;;;;;;;5075810;28;20040;-57
2023/03/18 10:44:45;;;;;;;5.88;1.67;;;;;;;;;;5056620;28;20174;-57
2023/03/18 10:47:19;;;;;;;6.72;3.10;;;;;;;;;;5056414;28;20051;-58
2023/03/18 10:49:49;;;;;;;3.90;1.95;;;;;;;;;;5075974;28;20080;-58
2023/03/18 10:52:24;;;;;;;4.10;1.80;;;;;;;;;;5074642;28;20510;-58
2023/03/18 10:54:51;;;;;;;7.43;1.92;;;;;;;;;;5076292;28;20040;-57
2023/03/18 10:57:17;;;;;;;3.30;1.55;;;;;;;;;;5073662;28;20448;-58
2023/03/18 10:59:44;;;;;;;7.50;1.67;;;;;;;;;;5075256;28;20045;-57
2023/03/18 11:02:19;;;;;;;4.60;1.83;;;;;;;;;;5048889;28;20098;-58
2023/03/18 11:04:50;;;;;;;5.03;1.20;;;;;;;;;;5075378;28;20114;-58
2023/03/18 11:07:19;;;;;;;2.85;1.13;;;;;;;;;;5075450;28;20048;-58
2023/03/18 11:09:46;;;;;;;3.95;1.85;;;;;;;;;;5075246;28;20053;-57
2023/03/18 11:12:17;;;;;;;3.80;1.67;;;;;;;;;;5074527;28;20151;-58
2023/03/18 11:14:47;;;;;;;2.80;0.87;;;;;;;;;;5056830;28;20485;-58
2023/03/18 11:17:34;;;;;;;4.07;1.48;;;;;;;;;;5075929;28;20344;-57
2023/03/18 11:20:06;;;;;;;7.85;1.45;;;;;;;;;;5074617;28;20048;-57
2023/03/18 11:22:32;;;;;;;2.75;1.42;;;;;;;;;;5073346;28;20049;-58
2023/03/18 11:25:18;;;;;;;4.78;2.22;;;;;;;;;;5075997;28;20109;-57
2023/03/18 11:27:44;;;;;;;5.18;1.90;;;;;;;;;;5056143;28;20079;-57
2023/03/18 11:30:12;;;;;;;3.90;1.92;;;;;;;;;;5073976;28;20103;-57
2023/03/18 11:32:49;;;;;;;5.07;1.58;;;;;;;;;;5074847;28;20124;-57
2023/03/18 11:35:18;;;;;;;2.17;0.90;;;;;;;;;;5074761;28;20039;-57
2023/03/18 11:37:46;;;;;;;3.33;1.50;;;;;;;;;;5074480;28;20143;-57
2023/03/18 11:40:25;;;;;;;4.25;1.23;;;;;;;;;;5075196;28;20549;-57
2023/03/18 11:42:54;;;;;;;4.75;1.20;;;;;;;;;;5071386;28;20453;-57
2023/03/18 11:45:49;;;;;;;6.50;1.95;;;;;;;;;;5074156;28;20041;-57
2023/03/18 11:48:24;;;;;;;2.70;1.40;;;;;;;;;;5055926;28;20051;-57
2023/03/18 11:51:03;;;;;;;3.67;1.33;;;;;;;;;;5068512;28;20538;-57
2023/03/18 11:53:39;;;;;;;3.55;1.15;;;;;;;;;;5070880;28;20048;-58
2023/03/18 11:56:19;;;;;;;3.53;1.25;;;;;;;;;;5069988;28;21137;-57
2023/03/18 11:58:45;;;;;;;5.53;1.58;;;;;;;;;;5049996;28;20055;-58
2023/03/18 12:01:27;;;;;;;6.10;1.92;;;;;;;;;;5070863;28;20048;-57
2023/03/18 12:03:56;;;;;;;2.50;1.17;;;;;;;;;;5072304;28;20039;-57
2023/03/18 12:06:27;;;;;;;6.65;1.92;;;;;;;;;;5068809;28;20040;-57
2023/03/18 12:08:53;;;;;;;2.88;1.40;;;;;;;;;;5072627;28;20043;-57
2023/03/18 12:11:38;;;;;;;2.63;1.30;;;;;;;;;;5067558;28;20063;-58
2023/03/18 12:14:04;;;;;;;3.03;1.30;;;;;;;;;;5072445;28;20129;-57
2023/03/18 12:16:31;;;;;;;7.55;1.85;;;;;;;;;;5071467;28;20044;-57
2023/03/18 12:19:07;;;;;;;5.80;1.80;;;;;;;;;;5071317;28;20040;-57
2023/03/18 12:21:45;;;;;;;4.50;1.10;;;;;;;;;;5068420;28;20053;-57
2023/03/18 12:24:30;;;;;;;4.68;1.80;;;;;;;;;;5071913;28;20048;-57
2023/03/18 12:26:57;;;;;;;6.15;1.80;;;;;;;;;;5067343;28;20530;-57
2023/03/18 12:29:29;;;;;;;10.25;2.10;;;;;;;;;;5069519;28;20044;-57
2023/03/18 12:32:15;;;;;;;6.32;2.17;;;;;;;;;;5071480;28;20029;-57
2023/03/18 12:34:57;;;;;;;6.00;1.60;;;;;;;;;;5053338;28;20048;-58
2023/03/18 12:37:31;;;;;;;3.20;1.33;;;;;;;;;;5072434;28;20075;-57
2023/03/18 12:40:06;;;;;;;6.63;2.22;;;;;;;;;;5071387;28;20079;-57
2023/03/18 12:42:42;;;;;;;6.40;1.45;;;;;;;;;;5069788;28;20044;-58
2023/03/18 12:45:10;;;;;;;4.07;1.35;;;;;;;;;;5068364;28;20251;-58
2023/03/18 12:47:42;;;;;;;2.80;1.42;;;;;;;;;;5071704;28;20040;-58
2023/03/18 12:50:18;;;;;;;4.55;1.65;;;;;;;;;;5046281;28;20111;-58
2023/03/18 12:52:50;;;;;;;4.53;2.45;;;;;;;;;;5072669;28;20048;-58
2023/03/18 12:55:20;;;;;;;2.50;1.30;;;;;;;;;;5068464;28;20155;-57
2023/03/18 12:57:55;;;;;;;3.83;2.10;;;;;;;;;;5052417;28;20048;-58
2023/03/18 13:00:34;;;;;;;6.10;1.35;;;;;;;;;;5051663;28;20089;-58
2023/03/18 13:03:20;;;;;;;4.55;1.35;;;;;;;;;;5052393;28;20064;-57
2023/03/18 13:05:46;;;;;;;3.42;1.60;;;;;;;;;;5068165;28;21066;-57
2023/03/18 13:08:15;;;;;;;5.60;2.35;;;;;;;;;;5070125;28;20044;-58
2023/03/18 13:10:42;;;;;;;4.53;1.70;;;;;;;;;;5069597;28;20531;-58
2023/03/18 13:13:09;;;;;;;4.70;2.20;;;;;;;;;;5068199;28;20118;-58
2023/03/18 13:15:41;;;;;;;6.38;1.45;;;;;;;;;;5044585;28;20076;-57
2023/03/18 13:18:19;;;;;;;3.80;1.67;;;;;;;;;;5045030;28;20051;-58
2023/03/18 13:20:46;;;;;;;3.85;1.45;;;;;;;;;;5071192;28;20045;-58
2023/03/18 13:23:19;;;;;;;11.85;2.72;;;;;;;;;;5070787;28;20055;-57
2023/03/18 13:26:01;;;;;;;5.68;2.25;;;;;;;;;;5069775;28;20068;-58
2023/03/18 13:28:34;;;;;;;4.90;1.90;;;;;;;;;;5068533;28;20612;-58
2023/03/18 13:31:05;;;;;;;5.75;2.10;;;;;;;;;;5069472;28;20045;-58
2023/03/18 13:33:41;;;;;;;3.65;1.90;;;;;;;;;;5048581;28;22155;-58
2023/03/18 13:36:14;;;;;;;4.80;2.22;;;;;;;;;;5065143;28;20055;-57
2023/03/18 13:38:50;;;;;;;5.03;1.40;;;;;;;;;;5070196;28;20048;-58
2023/03/18 13:41:27;;;;;;;8.98;1.63;;;;;;;;;;5068537;28;20224;-57
2023/03/18 13:43:55;;;;;;;3.10;1.35;;;;;;;;;;5069155;28;20044;-58
2023/03/18 13:46:26;;;;;;;3.03;1.17;;;;;;;;;;5069742;28;20044;-58
2023/03/18 13:49:00;;;;;;;6.40;1.65;;;;;;;;;;5065845;28;20049;-57
2023/03/18 13:51:28;;;;;;;4.47;1.98;;;;;;;;;;5067382;28;20542;-58
2023/03/18 13:53:59;;;;;;;3.67;1.45;;;;;;;;;;5069303;28;20048;-58
2023/03/18 13:56:43;;;;;;;8.88;1.30;;;;;;;;;;5073736;28;20041;-58
2023/03/18 13:59:28;;;;;;;5.20;1.98;;;;;;;;;;5071626;28;20044;-58
2023/03/18 14:01:58;;;;;;;3.20;1.33;;;;;;;;;;5071645;28;20032;-58
2023/03/18 14:04:30;;;;;;;4.82;1.55;;;;;;;;;;5071900;28;20550;-58
2023/03/18 14:07:12;;;;;;;2.35;1.15;;;;;;;;;;5069786;28;20049;-58
2023/03/18 14:09:50;;;;;;;4.75;1.45;;;;;;;;;;5048793;28;20325;-58
2023/03/18 14:12:32;;;;;;;4.70;1.83;;;;;;;;;;5073517;28;20056;-58
2023/03/18 14:15:04;;;;;;;3.00;1.30;;;;;;;;;;5071903;28;20756;-58
2023/03/18 14:17:34;;;;;;;7.18;1.52;;;;;;;;;;5072752;28;20155;-58
2023/03/18 14:20:18;;;;;;;2.53;1.30;;;;;;;;;;5066242;28;20470;-57
2023/03/18 14:22:45;;;;;;;3.08;2.10;;;;;;;;;;5054114;28;20095;-58
2023/03/18 14:25:18;;;;;;;2.08;0.90;;;;;;;;;;5070695;28;20051;-58
2023/03/18 14:27:57;;;;;;;5.85;1.58;;;;;;;;;;5046084;28;20047;-58
2023/03/18 14:30:29;;;;;;;4.07;1.48;;;;;;;;;;5070500;28;20552;-58
2023/03/18 14:32:59;;;;;;;2.40;1.45;;;;;;;;;;5071309;28;20168;-57
2023/03/18 14:35:32;;;;;;;3.10;1.25;;;;;;;;;;5071426;28;20044;-58
2023/03/18 14:38:05;;;;;;;3.88;2.08;;;;;;;;;;5070353;28;20040;-58
2023/03/18 14:40:35;;;;;;;4.82;1.60;;;;;;;;;;5072254;28;20029;-58
2023/03/18 14:43:06;;;;;;;4.35;2.00;;;;;;;;;;5071502;28;20044;-58
2023/03/18 14:45:34;;;;;;;2.33;1.40;;;;;;;;;;5068784;28;20040;-58
2023/03/18 14:48:20;;;;;;;2.67;1.38;;;;;;;;;;5069675;28;20051;-58
2023/03/18 14:50:53;;;;;;;5.45;2.22;;;;;;;;;;5072985;28;20538;-57
2023/03/18 14:53:22;;;;;;;3.45;1.85;;;;;;;;;;5071563;28;20419;-58
2023/03/18 14:55:50;;;;;;;4.05;1.08;;;;;;;;;;5072210;28;20637;-58